Time;durP1;ratioP1;P1;durP2;ratioP2;P2;SDS_P1;SDS_P2;PMS_P1;PMS_P2;Temp;Humidity;BMP_temperature;BMP_pressure;BME280_temperature;BME280_humidity;BME280_pressure;Samples;Min_cycle;Max_cycle;Signal;HPM_P1;HPM_P2
2021/11/29 00:01:07;;;;;;;1.53;1.43;;;1.00;99.90;0.70;94543.00;;;;5044143;28;20451;-82
2021/11/29 00:03:58;;;;;;;1.43;1.30;;;1.00;99.90;0.60;94543.00;;;;5058602;28;20655;-83
2021/11/29 00:06:48;;;;;;;1.13;1.07;;;0.90;99.90;0.60;94553.00;;;;5052488;28;20440;-82
2021/11/29 00:09:37;;;;;;;1.20;1.10;;;0.90;99.90;0.60;94559.00;;;;5051876;28;20455;-83
2021/11/29 00:12:26;;;;;;;1.23;1.13;;;1.00;99.90;0.60;94563.00;;;;5051919;28;20423;-84
2021/11/29 00:15:16;;;;;;;1.27;0.83;;;0.90;99.90;0.50;94558.00;;;;5043938;28;20427;-83
2021/11/29 00:18:05;;;;;;;1.30;1.20;;;0.90;99.90;0.50;94578.00;;;;5056485;28;20991;-82
2021/11/29 00:20:54;;;;;;;1.20;1.10;;;0.90;99.90;0.50;94572.00;;;;5055745;28;20812;-83
2021/11/29 00:23:45;;;;;;;1.10;1.07;;;0.90;99.90;0.60;94578.00;;;;5055355;28;20471;-85
2021/11/29 00:26:34;;;;;;;1.30;1.20;;;0.90;99.90;0.60;94573.00;;;;5056273;28;20435;-83
2021/11/29 00:29:22;;;;;;;1.30;1.20;;;1.00;99.90;0.60;94583.00;;;;5056097;28;20454;-84
2021/11/29 00:32:12;;;;;;;2.10;1.00;;;0.90;99.90;0.50;94585.00;;;;5056555;28;20439;-82
2021/11/29 00:35:01;;;;;;;1.17;1.07;;;0.90;99.90;0.40;94579.00;;;;5055725;28;20445;-81
2021/11/29 00:37:50;;;;;;;1.20;1.10;;;1.30;99.90;0.40;94582.00;;;;5042952;28;20466;-83
2021/11/29 00:40:42;;;;;;;0.97;0.97;;;0.80;99.90;0.40;94591.00;;;;5052720;28;20447;-83
2021/11/29 00:43:31;;;;;;;0.87;0.87;;;0.80;99.90;0.50;94590.00;;;;5054133;28;20469;-82
2021/11/29 00:46:19;;;;;;;1.47;1.23;;;1.10;99.90;0.40;94587.00;;;;5049986;28;20422;-82
2021/11/29 00:49:08;;;;;;;1.20;1.10;;;0.80;99.90;0.40;94605.00;;;;5054305;28;20431;-83
2021/11/29 00:51:57;;;;;;;1.23;1.13;;;1.00;99.90;0.30;94600.00;;;;5054332;28;20936;-83
2021/11/29 00:54:46;;;;;;;1.13;1.03;;;1.30;99.90;0.40;94612.00;;;;5055224;28;20435;-82
2021/11/29 00:57:36;;;;;;;1.40;1.07;;;0.80;99.90;0.40;94612.00;;;;5057705;28;20444;-83
2021/11/29 01:00:27;;;;;;;1.10;1.00;;;0.80;99.90;0.40;94614.00;;;;5054361;28;20438;-83
2021/11/29 01:03:16;;;;;;;0.77;0.77;;;0.80;99.90;0.20;94610.00;;;;5052176;28;20493;-82
2021/11/29 01:06:05;;;;;;;1.23;1.13;;;0.80;99.90;-0.10;94611.00;;;;5061848;28;20783;-81
2021/11/29 01:08:54;;;;;;;4.50;1.80;;;1.30;99.90;-0.10;94620.00;;;;5049990;28;20463;-85
2021/11/29 01:11:43;;;;;;;1.40;1.30;;;0.70;99.90;0.10;94625.00;;;;5054210;28;20431;-83
2021/11/29 01:14:33;;;;;;;1.27;1.17;;;0.70;99.90;0.20;94630.00;;;;5055628;28;20435;-83
2021/11/29 01:17:22;;;;;;;3.27;1.40;;;0.70;99.90;0.30;94628.00;;;;5054385;28;20454;-83
2021/11/29 01:20:12;;;;;;;1.80;1.50;;;1.70;99.90;0.30;94622.00;;;;5055441;28;20451;-82
2021/11/29 01:23:01;;;;;;;1.33;1.23;;;0.70;99.90;0.30;94632.00;;;;5055687;28;20783;-82
2021/11/29 01:25:53;;;;;;;1.40;1.30;;;0.70;99.90;0.40;94632.00;;;;5055228;28;20436;-84
2021/11/29 01:28:42;;;;;;;2.57;1.43;;;0.70;99.90;0.40;94640.00;;;;5054785;28;20470;-84
2021/11/29 01:31:32;;;;;;;2.00;1.20;;;0.70;99.90;0.40;94640.00;;;;5057042;28;20431;-83
2021/11/29 01:34:21;;;;;;;1.30;1.20;;;0.70;99.90;0.30;94654.00;;;;5057697;28;20435;-82
2021/11/29 01:37:10;;;;;;;1.20;1.10;;;0.70;99.90;0.20;94646.00;;;;5058565;28;20446;-84
2021/11/29 01:39:59;;;;;;;1.30;1.20;;;0.70;99.90;0.20;94650.00;;;;5059253;28;20446;-84
2021/11/29 01:43:00;;;;;;;2.23;1.40;;;0.70;99.90;0.30;94654.00;;;;5059206;28;20420;-84
2021/11/29 01:45:54;;;;;;;1.33;1.23;;;0.80;99.90;0.30;94663.00;;;;5058070;28;20419;-84
2021/11/29 01:48:45;;;;;;;1.57;1.47;;;0.70;99.90;0.30;94658.00;;;;5058554;28;20447;-83
2021/11/29 01:51:34;;;;;;;2.87;1.43;;;0.70;99.90;0.30;94658.00;;;;5057526;28;20428;-82
2021/11/29 01:54:24;;;;;;;1.60;1.50;;;0.70;99.90;0.40;94665.00;;;;5047391;28;20427;-84
2021/11/29 01:57:13;;;;;;;1.53;1.43;;;0.70;99.90;0.30;94666.00;;;;5058985;28;20431;-84
2021/11/29 02:00:05;;;;;;;3.10;1.27;;;0.70;99.90;0.40;94671.00;;;;5058971;28;20993;-83
2021/11/29 02:02:57;;;;;;;1.93;1.73;;;0.70;99.90;0.40;94679.00;;;;5060285;28;20445;-84
2021/11/29 02:05:47;;;;;;;1.73;1.63;;;0.70;99.90;0.40;94680.00;;;;5050680;28;20890;-82
2021/11/29 02:08:36;;;;;;;2.33;1.13;;;0.70;99.90;0.30;94678.00;;;;5059776;28;20451;-82
2021/11/29 02:11:27;;;;;;;2.03;1.67;;;0.70;99.90;0.40;94685.00;;;;5062273;28;20416;-84
2021/11/29 02:14:16;;;;;;;1.33;1.20;;;0.70;99.90;0.40;94683.00;;;;5058580;28;20437;-83
2021/11/29 02:17:06;;;;;;;1.50;1.40;;;0.70;99.90;0.40;94688.00;;;;5058848;28;20800;-83
2021/11/29 02:19:56;;;;;;;1.40;1.30;;;0.70;99.90;0.30;94688.00;;;;5057309;28;20933;-83
2021/11/29 02:22:48;;;;;;;1.53;1.43;;;0.90;99.90;0.30;94692.00;;;;5054007;28;20423;-84
2021/11/29 02:25:36;;;;;;;1.87;1.73;;;0.70;99.90;0.20;94670.00;;;;5058740;28;20513;-81
2021/11/29 02:28:26;;;;;;;1.63;1.30;;;0.80;99.90;0.20;94685.00;;;;5045550;28;20450;-83
2021/11/29 02:31:19;;;;;;;2.03;1.50;;;0.70;99.90;0.10;94681.00;;;;5059818;28;20423;-83
2021/11/29 02:34:11;;;;;;;1.50;1.40;;;0.60;99.90;0.20;94678.00;;;;5057387;28;20428;-83
2021/11/29 02:37:05;;;;;;;1.50;1.10;;;0.60;99.90;0.20;94681.00;;;;5060065;28;20434;-82
2021/11/29 02:39:57;;;;;;;1.43;1.30;;;1.80;99.90;0.20;94677.00;;;;5048447;28;20796;-84
2021/11/29 02:42:46;;;;;;;1.57;1.47;;;0.60;99.90;0.20;94690.00;;;;5057498;28;20442;-82
2021/11/29 02:45:35;;;;;;;1.50;1.40;;;0.60;99.90;0.10;94691.00;;;;5061579;28;20690;-81
2021/11/29 02:48:40;;;;;;;1.50;1.40;;;0.90;99.90;0.10;94696.00;;;;5053958;28;20443;-83
2021/11/29 02:51:32;;;;;;;1.40;1.30;;;0.60;99.90;0.20;94694.00;;;;5056198;28;20411;-82
2021/11/29 02:54:24;;;;;;;1.40;1.30;;;0.60;99.90;0.30;94699.00;;;;5044763;28;20431;-84
2021/11/29 02:57:18;;;;;;;1.87;1.73;;;1.60;99.90;0.30;94703.00;;;;5057327;28;21296;-83
2021/11/29 03:00:10;;;;;;;1.40;1.30;;;0.60;99.90;0.30;94698.00;;;;5057477;28;20446;-82
2021/11/29 03:03:08;;;;;;;2.23;1.60;;;0.60;99.90;0.30;94698.00;;;;5056129;28;20419;-83
2021/11/29 03:05:57;;;;;;;1.20;1.10;;;0.60;99.90;0.30;94701.00;;;;5055858;28;20478;-83
2021/11/29 03:08:46;;;;;;;1.70;1.60;;;0.60;99.90;0.30;94696.00;;;;5056654;28;20467;-81
2021/11/29 03:11:35;;;;;;;1.80;1.70;;;0.60;99.90;0.30;94701.00;;;;5061173;28;20461;-83
2021/11/29 03:14:26;;;;;;;1.53;1.30;;;0.60;99.90;0.30;94706.00;;;;5057802;28;20434;-83
2021/11/29 03:17:16;;;;;;;1.47;1.37;;;0.60;99.90;0.30;94711.00;;;;5057734;28;20440;-82
2021/11/29 03:20:06;;;;;;;1.93;1.80;;;0.60;99.90;0.20;94704.00;;;;5058378;28;20438;-82
2021/11/29 03:22:55;;;;;;;1.17;1.17;;;0.50;99.90;0.30;94700.00;;;;5058618;28;20434;-83
2021/11/29 03:25:43;;;;;;;2.03;1.83;;;0.60;99.90;0.30;94709.00;;;;5059061;28;20471;-83
2021/11/29 03:28:37;;;;;;;1.30;1.20;;;0.60;99.90;0.30;94711.00;;;;5059063;28;20447;-82
2021/11/29 03:31:32;;;;;;;1.67;1.47;;;0.60;99.90;0.30;94701.00;;;;5059353;28;20416;-83
2021/11/29 03:34:24;;;;;;;1.83;1.57;;;0.60;99.90;0.20;94704.00;;;;5056851;28;20435;-83
2021/11/29 03:37:13;;;;;;;2.17;1.60;;;0.60;99.90;0.20;94700.00;;;;5058475;28;20423;-82
2021/11/29 03:40:02;;;;;;;2.03;1.83;;;0.60;99.90;0.20;94697.00;;;;5057516;28;20423;-82
2021/11/29 03:42:50;;;;;;;1.60;1.50;;;0.60;99.90;0.20;94696.00;;;;5057877;28;20416;-83
2021/11/29 03:45:39;;;;;;;2.40;1.93;;;0.60;99.90;0.20;94691.00;;;;5058271;28;20471;-83
2021/11/29 03:48:29;;;;;;;3.63;1.87;;;0.50;99.90;0.20;94691.00;;;;5055863;28;20991;-84
2021/11/29 03:51:18;;;;;;;1.97;1.77;;;0.50;99.90;0.20;94695.00;;;;5053684;28;20430;-84
2021/11/29 03:54:08;;;;;;;1.87;1.77;;;0.50;99.90;0.20;94700.00;;;;5054549;28;20963;-82
2021/11/29 03:56:56;;;;;;;1.97;1.80;;;0.50;99.90;0.10;94694.00;;;;5053849;28;20427;-83
2021/11/29 03:59:45;;;;;;;2.50;2.30;;;0.50;99.90;0.10;94698.00;;;;5057955;28;20428;-81
2021/11/29 04:02:34;;;;;;;2.87;1.80;;;0.50;99.90;0.10;94701.00;;;;5059172;28;20944;-83
2021/11/29 04:05:25;;;;;;;3.30;1.70;;;0.40;99.90;0.00;94697.00;;;;5056336;28;20481;-83
2021/11/29 04:08:14;;;;;;;2.43;1.30;;;0.40;99.90;0.00;94701.00;;;;5057128;28;20971;-83
2021/11/29 04:11:03;;;;;;;1.47;1.37;;;0.40;99.90;-0.10;94691.00;;;;5065287;28;20427;-83
2021/11/29 04:13:52;;;;;;;3.40;1.37;;;0.50;99.90;-0.10;94695.00;;;;5047294;28;20423;-83
2021/11/29 04:16:41;;;;;;;1.73;1.63;;;0.40;99.90;-0.10;94700.00;;;;5056583;28;20419;-82
2021/11/29 04:19:30;;;;;;;1.93;1.73;;;0.30;99.90;-0.10;94693.00;;;;5057890;28;20455;-82
2021/11/29 04:22:20;;;;;;;1.33;1.23;;;0.30;99.90;-0.20;94691.00;;;;5058248;28;20430;-82
2021/11/29 04:25:10;;;;;;;2.07;1.60;;;0.30;99.90;-0.20;94691.00;;;;5053259;28;20463;-83
2021/11/29 04:27:59;;;;;;;1.67;1.57;;;0.30;99.90;-0.10;94707.00;;;;5057538;28;20458;-84
2021/11/29 04:30:48;;;;;;;1.60;1.20;;;1.10;99.90;-0.10;94704.00;;;;5055620;28;20427;-82
2021/11/29 04:33:37;;;;;;;1.63;1.53;;;0.30;99.90;-0.10;94718.00;;;;5057847;28;20435;-82
2021/11/29 04:36:27;;;;;;;1.00;1.00;;;0.30;99.90;-0.10;94707.00;;;;5058641;28;20439;-82
2021/11/29 04:39:17;;;;;;;1.50;1.40;;;0.20;99.90;-0.10;94723.00;;;;5059787;28;20451;-83
2021/11/29 04:42:07;;;;;;;1.70;1.23;;;0.20;99.90;-0.10;94718.00;;;;5059679;28;20426;-82
2021/11/29 04:44:55;;;;;;;1.53;1.40;;;0.20;99.90;-0.10;94730.00;;;;5060050;28;20478;-84
2021/11/29 04:47:45;;;;;;;3.70;1.10;;;0.20;99.90;-0.20;94727.00;;;;5060657;28;20466;-82
2021/11/29 04:50:34;;;;;;;1.47;1.37;;;0.20;99.90;-0.20;94724.00;;;;5055937;28;20710;-83
2021/11/29 04:53:23;;;;;;;1.63;1.17;;;0.20;99.90;-0.20;94730.00;;;;5060134;28;20683;-81
2021/11/29 04:56:13;;;;;;;3.33;1.43;;;0.20;99.90;-0.20;94723.00;;;;5059253;28;20440;-82
2021/11/29 04:59:02;;;;;;;1.53;1.43;;;0.40;99.90;-0.20;94742.00;;;;5058136;28;20443;-82
2021/11/29 05:01:51;;;;;;;1.20;1.10;;;0.20;99.90;-0.30;94732.00;;;;5059357;28;20430;-83
2021/11/29 05:04:45;;;;;;;2.57;1.13;;;1.00;99.90;-0.40;94737.00;;;;5056454;28;20427;-82
2021/11/29 05:07:34;;;;;;;6.07;2.47;;;0.10;99.90;-0.50;94737.00;;;;5051710;28;20447;-83
2021/11/29 05:10:22;;;;;;;1.90;1.80;;;0.10;99.90;-0.60;94739.00;;;;5059099;28;20445;-83
2021/11/29 05:13:13;;;;;;;1.57;1.47;;;0.00;99.90;-0.60;94735.00;;;;5054977;28;20415;-84
2021/11/29 05:16:02;;;;;;;1.80;1.70;;;0.00;99.90;-0.70;94747.00;;;;5057679;28;20948;-82
2021/11/29 05:18:51;;;;;;;1.80;1.20;;;0.00;99.90;-0.90;94748.00;;;;5057302;28;20450;-84
2021/11/29 05:21:39;;;;;;;1.63;1.53;;;-0.10;99.90;-0.90;94753.00;;;;5058391;28;20483;-83
2021/11/29 05:24:28;;;;;;;1.73;1.40;;;-0.20;99.90;-1.00;94759.00;;;;5058306;28;20438;-83
2021/11/29 05:27:17;;;;;;;1.53;1.43;;;-0.20;99.90;-1.00;94761.00;;;;5058931;28;21538;-84
2021/11/29 05:30:09;;;;;;;1.63;1.50;;;-0.20;99.90;-0.90;94769.00;;;;5058507;28;20423;-83
2021/11/29 05:32:58;;;;;;;1.70;1.60;;;-0.30;99.90;-0.70;94764.00;;;;5056459;28;20435;-81
2021/11/29 05:35:47;;;;;;;2.13;1.93;;;-0.30;99.90;-0.80;94768.00;;;;5055109;28;20806;-81
2021/11/29 05:38:36;;;;;;;1.60;1.50;;;-0.30;99.90;-0.70;94781.00;;;;5056915;28;20956;-82
2021/11/29 05:41:25;;;;;;;2.40;1.20;;;-0.30;99.90;-0.80;94785.00;;;;5051246;28;20416;-83
2021/11/29 05:44:15;;;;;;;1.57;1.40;;;-0.30;99.90;-0.90;94793.00;;;;5052724;28;20868;-84
2021/11/29 05:47:05;;;;;;;1.67;1.57;;;-0.30;99.90;-1.00;94785.00;;;;5058754;28;20465;-84
2021/11/29 05:49:54;;;;;;;1.70;1.60;;;-0.10;99.90;-1.00;94791.00;;;;5064032;28;20438;-83
2021/11/29 05:52:44;;;;;;;2.70;1.23;;;-0.30;99.90;-0.90;94798.00;;;;5051969;28;20485;-83
2021/11/29 05:55:33;;;;;;;4.37;1.40;;;-0.40;99.90;-0.80;94801.00;;;;5056632;28;20427;-81
2021/11/29 05:58:22;;;;;;;1.60;1.50;;;-0.40;99.90;-0.90;94806.00;;;;5055265;28;20435;-83
2021/11/29 06:01:11;;;;;;;2.13;1.93;;;-0.40;99.90;-1.00;94811.00;;;;5046140;28;20442;-83
2021/11/29 06:04:01;;;;;;;3.10;1.80;;;-0.40;99.90;-1.00;94822.00;;;;5051971;28;20419;-84
2021/11/29 06:06:50;;;;;;;2.07;1.93;;;-0.40;99.90;-0.90;94824.00;;;;5041326;28;20480;-83
2021/11/29 06:09:39;;;;;;;1.50;1.40;;;-0.40;99.90;-0.90;94837.00;;;;5050982;28;20439;-83
2021/11/29 06:12:28;;;;;;;5.63;1.57;;;-0.40;99.90;-0.80;94843.00;;;;5055518;28;20439;-81
2021/11/29 06:15:17;;;;;;;1.70;1.60;;;-0.40;99.90;-0.80;94845.00;;;;5053173;28;20959;-82
2021/11/29 06:18:06;;;;;;;2.60;1.60;;;-0.40;99.90;-0.90;94855.00;;;;5055213;28;20799;-82
2021/11/29 06:20:56;;;;;;;2.37;1.80;;;-0.40;99.90;-1.10;94848.00;;;;5052788;28;20773;-84
2021/11/29 06:23:45;;;;;;;2.40;1.70;;;-0.50;99.90;-1.20;94857.00;;;;5053721;28;20423;-82
2021/11/29 06:26:34;;;;;;;3.70;2.10;;;-0.50;99.90;-1.30;94866.00;;;;5052658;28;20467;-82
2021/11/29 06:29:23;;;;;;;2.10;1.77;;;-0.50;99.90;-1.40;94874.00;;;;5051637;28;20459;-82
2021/11/29 06:32:12;;;;;;;2.43;2.10;;;-0.50;99.90;-1.30;94872.00;;;;5047263;28;20453;-82
2021/11/29 06:35:01;;;;;;;3.77;2.70;;;-0.60;99.90;-1.30;94873.00;;;;5051212;28;20424;-82
2021/11/29 06:37:58;;;;;;;4.10;3.53;;;-0.70;99.90;-1.30;94893.00;;;;5053574;28;20455;-83
2021/11/29 06:40:49;;;;;;;2.97;2.40;;;-0.70;99.90;-1.30;94886.00;;;;5053011;28;20454;-83
2021/11/29 06:43:38;;;;;;;1.47;1.37;;;-0.70;99.90;-1.40;94886.00;;;;5052329;28;20836;-83
2021/11/29 06:46:27;;;;;;;1.77;1.67;;;-0.70;99.90;-1.30;94897.00;;;;5051030;28;20459;-84
2021/11/29 06:49:16;;;;;;;1.63;1.53;;;-0.60;99.90;-1.20;94913.00;;;;5052334;28;20470;-84
2021/11/29 06:52:06;;;;;;;2.43;1.83;;;-0.60;99.90;-1.00;94911.00;;;;5051098;28;20430;-82
2021/11/29 06:54:56;;;;;;;1.87;1.47;;;-0.60;99.90;-1.00;94924.00;;;;5052103;28;20470;-84
2021/11/29 06:57:45;;;;;;;1.30;1.10;;;-0.50;99.90;-1.00;94914.00;;;;5050177;28;20447;-83
2021/11/29 07:00:34;;;;;;;1.60;1.50;;;-0.50;99.90;-0.90;94920.00;;;;5047281;28;20461;-83
2021/11/29 07:03:24;;;;;;;1.63;1.10;;;-0.40;99.90;-0.80;94916.00;;;;5049378;28;20461;-80
2021/11/29 07:06:13;;;;;;;1.83;1.33;;;-0.40;99.90;-0.90;94932.00;;;;5041853;28;20466;-80
2021/11/29 07:09:02;;;;;;;3.27;1.33;;;-0.40;99.90;-0.60;94931.00;;;;5047862;28;20475;-77
2021/11/29 07:11:53;;;;;;;1.40;1.30;;;-0.30;99.90;-0.70;94937.00;;;;5049108;28;20788;-79
2021/11/29 07:14:42;;;;;;;2.33;1.83;;;-0.30;99.90;-0.70;94935.00;;;;5049955;28;20963;-81
2021/11/29 07:17:31;;;;;;;3.20;1.77;;;-0.30;99.90;-0.70;94948.00;;;;5044634;28;20462;-80
2021/11/29 07:20:20;;;;;;;2.10;1.13;;;-0.30;99.90;-0.80;94952.00;;;;5044786;28;20819;-81
2021/11/29 07:23:09;;;;;;;2.03;1.00;;;-0.30;99.90;-0.70;94951.00;;;;5056874;28;20776;-81
2021/11/29 07:25:58;;;;;;;1.50;1.40;;;-0.20;99.90;-0.50;94956.00;;;;5054705;28;20427;-79
2021/11/29 07:28:48;;;;;;;0.97;0.87;;;0.60;99.90;-0.70;94958.00;;;;5058138;28;20446;-84
2021/11/29 07:31:49;;;;;;;1.70;1.40;;;0.70;99.90;-0.50;94955.00;;;;5044265;28;20642;-87
2021/11/29 07:34:41;;;;;;;1.70;1.60;;;-0.10;99.90;-0.60;94961.00;;;;5049412;28;20431;-87
2021/11/29 07:37:32;;;;;;;2.40;1.50;;;0.50;99.90;-0.40;94965.00;;;;5053240;28;20878;-79
2021/11/29 07:40:27;;;;;;;1.97;1.77;;;1.90;99.90;-0.20;94949.00;;;;5055554;28;20430;-77
2021/11/29 07:43:17;;;;;;;2.20;1.80;;;0.10;99.90;-0.40;94956.00;;;;5045216;28;20451;-85
2021/11/29 07:46:07;;;;;;;1.90;1.53;;;0.00;99.90;-0.60;94956.00;;;;5050973;28;21010;-82
2021/11/29 07:48:57;;;;;;;3.20;1.60;;;0.00;99.90;-0.60;94959.00;;;;5055123;28;20471;-81
2021/11/29 07:51:46;;;;;;;1.67;1.37;;;0.60;99.90;-0.30;94955.00;;;;5050290;28;20442;-83
2021/11/29 07:54:36;;;;;;;1.73;1.10;;;0.20;99.90;-0.30;94978.00;;;;5052480;28;20427;-86
2021/11/29 07:57:24;;;;;;;0.80;0.80;;;0.20;99.90;-0.10;94972.00;;;;5051608;28;20426;-85
2021/11/29 08:00:27;;;;;;;1.80;1.40;;;0.30;99.90;0.10;94982.00;;;;5045851;28;20443;-84
2021/11/29 08:03:18;;;;;;;3.03;1.43;;;0.40;99.90;0.20;94987.00;;;;5044703;28;20897;-85
2021/11/29 08:06:07;;;;;;;1.60;1.50;;;0.50;99.90;0.60;94982.00;;;;5046113;28;20420;-87
2021/11/29 08:08:56;;;;;;;1.40;1.30;;;0.60;99.90;0.90;94986.00;;;;5049226;28;21348;-84
2021/11/29 08:11:45;;;;;;;1.77;1.47;;;0.10;99.90;1.10;94990.00;;;;5047501;28;20435;-85
2021/11/29 08:14:34;;;;;;;1.07;1.00;;;1.00;99.90;1.10;94988.00;;;;5049203;28;20453;-86
2021/11/29 08:17:23;;;;;;;1.27;1.17;;;1.90;99.90;1.40;94997.00;;;;5044445;28;20431;-84
2021/11/29 08:20:14;;;;;;;3.00;1.33;;;1.30;99.90;1.50;94999.00;;;;5042565;28;20451;-84
2021/11/29 08:23:03;;;;;;;2.37;1.60;;;1.90;99.90;1.10;94993.00;;;;5049489;28;20424;-84
2021/11/29 08:25:54;;;;;;;1.67;1.20;;;1.60;99.90;1.40;94995.00;;;;5051548;28;20979;-84
2021/11/29 08:28:43;;;;;;;2.30;1.47;;;1.70;99.90;1.30;94995.00;;;;5050255;28;20456;-85
2021/11/29 08:31:34;;;;;;;2.63;2.03;;;2.40;99.90;1.50;95006.00;;;;5048809;28;20441;-85
2021/11/29 08:34:25;;;;;;;1.80;1.70;;;3.20;99.90;1.80;95020.00;;;;5046871;28;20951;-85
2021/11/29 08:37:18;;;;;;;1.83;1.53;;;1.90;99.90;1.90;95033.00;;;;5049405;28;20439;-84
2021/11/29 08:40:09;;;;;;;5.97;2.67;;;2.00;99.90;1.60;95018.00;;;;5050276;28;20443;-85
2021/11/29 08:43:02;;;;;;;2.07;1.67;;;2.10;99.90;1.70;95022.00;;;;5045991;28;20961;-81
2021/11/29 08:46:01;;;;;;;1.57;1.43;;;2.00;99.90;2.40;95037.00;;;;5049085;28;20422;-86
2021/11/29 08:48:57;;;;;;;2.40;1.37;;;2.90;99.90;2.70;95051.00;;;;5049274;28;20447;-84
2021/11/29 08:51:55;;;;;;;1.13;1.07;;;2.60;99.90;2.20;95045.00;;;;5050286;28;20419;-86
2021/11/29 08:54:51;;;;;;;1.70;1.43;;;2.80;99.90;1.90;95042.00;;;;5043821;28;20454;-87
2021/11/29 08:57:41;;;;;;;3.13;2.07;;;2.60;99.90;2.10;95043.00;;;;5045582;28;20447;-85
2021/11/29 09:00:41;;;;;;;2.17;1.87;;;2.60;99.90;2.40;95049.00;;;;5051291;28;20434;-85
2021/11/29 09:03:31;;;;;;;1.43;1.33;;;2.60;99.90;2.90;95067.00;;;;5049852;28;20431;-84
2021/11/29 09:06:23;;;;;;;1.80;1.67;;;3.20;99.90;3.00;95058.00;;;;5055630;28;20599;-84
2021/11/29 09:09:12;;;;;;;2.20;1.83;;;2.90;99.90;3.10;95066.00;;;;5051158;28;20491;-85
2021/11/29 09:15:18;;;;;;;2.53;1.90;;;3.30;99.90;2.30;95070.00;;;;5049610;28;20200;-86
2021/11/29 09:18:07;;;;;;;6.53;2.80;;;3.20;99.90;2.00;95068.00;;;;5048892;28;20455;-85
2021/11/29 09:21:03;;;;;;;3.20;2.67;;;3.00;99.90;2.40;95071.00;;;;5050643;28;20494;-84
2021/11/29 09:23:58;;;;;;;3.33;3.03;;;3.00;99.90;2.50;95084.00;;;;5050017;28;20942;-86
2021/11/29 09:26:49;;;;;;;2.53;2.33;;;2.90;99.90;1.90;95079.00;;;;5051461;28;20810;-85
2021/11/29 09:29:49;;;;;;;1.60;1.30;;;2.80;99.90;1.70;95076.00;;;;5049620;28;20469;-85
2021/11/29 09:32:41;;;;;;;3.97;1.70;;;2.60;99.90;1.90;95087.00;;;;5047281;28;20824;-85
2021/11/29 09:35:30;;;;;;;3.50;2.43;;;2.60;99.90;1.90;95083.00;;;;5049127;28;20863;-85
2021/11/29 09:38:19;;;;;;;2.23;2.07;;;3.20;99.90;2.30;95067.00;;;;5044672;28;20451;-86
2021/11/29 09:41:09;;;;;;;2.73;2.33;;;2.90;99.90;2.90;95096.00;;;;5049888;28;20423;-86
2021/11/29 09:43:59;;;;;;;4.83;1.90;;;2.20;99.90;3.20;95094.00;;;;5054834;28;20987;-85
2021/11/29 09:46:50;;;;;;;2.37;2.17;;;3.20;99.90;3.40;95092.00;;;;5063687;28;20423;-83
2021/11/29 09:49:39;;;;;;;2.00;1.80;;;3.00;99.90;3.90;95081.00;;;;5048440;28;20432;-85
2021/11/29 09:52:30;;;;;;;1.77;1.43;;;3.30;99.90;4.50;95082.00;;;;5052154;28;20803;-86
2021/11/29 09:55:30;;;;;;;3.03;1.70;;;3.70;99.90;3.60;95078.00;;;;5054393;28;20431;-85
2021/11/29 09:58:22;;;;;;;1.57;1.47;;;3.90;99.90;4.10;95083.00;;;;5056937;28;20852;-86
2021/11/29 10:01:13;;;;;;;2.00;1.73;;;4.00;99.90;3.50;95081.00;;;;5051270;28;20212;-85
2021/11/29 10:04:21;;;;;;;3.40;2.70;;;3.90;99.90;4.30;95055.00;;;;5056187;28;20211;-83
2021/11/29 10:07:10;;;;;;;1.80;1.70;;;3.90;99.90;4.70;95093.00;;;;5056909;28;20216;-83
2021/11/29 10:10:11;;;;;;;4.60;1.80;;;4.10;99.90;5.10;95101.00;;;;5055714;28;20220;-83
2021/11/29 10:13:03;;;;;;;1.60;1.10;;;4.40;99.90;5.10;95103.00;;;;5054160;28;20223;-84
2021/11/29 10:15:52;;;;;;;1.73;1.63;;;4.60;99.90;4.70;95108.00;;;;5055197;28;20200;-85
2021/11/29 10:18:42;;;;;;;4.20;1.57;;;4.70;99.90;4.00;95091.00;;;;5056315;28;20228;-85
2021/11/29 10:21:32;;;;;;;1.57;1.40;;;4.60;99.90;4.60;95087.00;;;;5053083;28;20204;-85
2021/11/29 10:24:24;;;;;;;4.57;2.43;;;4.60;99.90;5.60;95112.00;;;;5052901;28;20287;-84
2021/11/29 10:27:14;;;;;;;2.30;1.20;;;5.00;99.90;5.00;95116.00;;;;5052833;28;20203;-85
2021/11/29 10:30:06;;;;;;;2.80;1.20;;;5.20;99.90;4.70;95113.00;;;;5059390;28;20203;-84
2021/11/29 10:32:55;;;;;;;1.20;1.10;;;5.20;99.90;4.70;95090.00;;;;5052329;28;20200;-86
2021/11/29 10:35:43;;;;;;;2.93;1.30;;;5.10;99.90;4.80;95120.00;;;;5056899;28;20215;-85
2021/11/29 10:38:34;;;;;;;2.63;1.27;;;5.10;99.90;5.40;95122.00;;;;5050726;28;20231;-84
2021/11/29 10:41:26;;;;;;;2.20;1.73;;;5.10;99.90;5.70;95120.00;;;;5053307;28;20212;-85
2021/11/29 10:44:19;;;;;;;1.70;1.50;;;5.40;99.90;6.20;95128.00;;;;5054549;28;20216;-83
2021/11/29 10:47:12;;;;;;;1.63;1.20;;;5.70;99.90;6.30;95131.00;;;;5057740;28;20224;-83
2021/11/29 10:50:06;;;;;;;1.00;1.00;;;6.00;99.90;6.40;95142.00;;;;5057264;28;20212;-85
2021/11/29 10:53:09;;;;;;;2.07;1.27;;;6.20;99.90;6.20;95104.00;;;;5061429;28;20686;-83
2021/11/29 10:56:01;;;;;;;2.07;1.07;;;6.30;99.90;6.20;95141.00;;;;5051223;28;20630;-85
2021/11/29 10:58:56;;;;;;;2.57;2.00;;;6.50;99.90;5.30;95088.00;;;;5048636;28;20271;-85
2021/11/29 11:01:49;;;;;;;4.63;3.50;;;6.30;99.90;5.80;95125.00;;;;5052678;28;20208;-86
2021/11/29 11:04:45;;;;;;;4.17;2.97;;;6.30;99.90;5.80;95122.00;;;;5044352;28;20207;-87
2021/11/29 11:07:36;;;;;;;4.37;3.20;;;6.20;99.90;6.30;95129.00;;;;5057204;28;20220;-84
2021/11/29 11:10:34;;;;;;;5.10;2.17;;;6.20;99.90;5.90;95131.00;;;;5046435;28;20213;-82
2021/11/29 11:13:24;;;;;;;5.20;1.97;;;6.10;99.90;5.40;95124.00;;;;5049785;28;20710;-81
2021/11/29 11:16:14;;;;;;;2.07;1.87;;;6.00;99.90;5.10;95123.00;;;;5049046;28;20205;-85
2021/11/29 11:19:04;;;;;;;3.00;2.70;;;5.70;99.90;3.90;95113.00;;;;5055383;28;20220;-81
2021/11/29 11:21:54;;;;;;;2.53;2.17;;;5.50;99.90;3.70;95118.00;;;;5038106;28;20657;-82
2021/11/29 11:24:48;;;;;;;8.57;3.30;;;4.90;99.90;3.50;95123.00;;;;5050556;28;20208;-82
2021/11/29 11:27:40;;;;;;;3.10;2.07;;;4.40;99.90;2.50;95125.00;;;;5044309;28;20487;-82
2021/11/29 11:30:33;;;;;;;2.17;1.83;;;3.90;99.90;2.60;95131.00;;;;5049466;28;20211;-80
2021/11/29 11:33:22;;;;;;;3.00;1.93;;;3.60;99.90;3.30;95126.00;;;;5043837;28;20197;-83
2021/11/29 11:36:11;;;;;;;1.70;1.60;;;3.40;99.90;3.20;95138.00;;;;5041647;28;20203;-81
2021/11/29 11:39:04;;;;;;;2.07;1.70;;;3.50;99.90;2.90;95140.00;;;;5049468;28;20762;-81
2021/11/29 11:41:53;;;;;;;4.47;3.07;;;3.40;99.90;2.80;95133.00;;;;5046527;28;20804;-82
2021/11/29 11:44:43;;;;;;;4.47;3.50;;;3.40;99.90;3.10;95141.00;;;;5051977;28;20427;-83
2021/11/29 11:47:34;;;;;;;4.87;2.93;;;3.40;99.90;3.40;95150.00;;;;5053544;28;20450;-82
2021/11/29 11:50:26;;;;;;;1.30;1.20;;;3.50;99.90;3.90;95154.00;;;;5044751;28;20601;-82
2021/11/29 11:53:15;;;;;;;1.30;1.20;;;4.30;99.90;3.60;95158.00;;;;5043405;28;20200;-83
2021/11/29 11:56:05;;;;;;;1.07;0.97;;;3.70;99.90;4.00;95166.00;;;;5048364;28;20208;-82
2021/11/29 11:59:04;;;;;;;1.40;1.17;;;3.90;99.90;4.00;95162.00;;;;5050973;28;20227;-81
2021/11/29 12:01:57;;;;;;;2.20;0.80;;;4.00;99.90;4.50;95159.00;;;;5052360;28;20208;-82
2021/11/29 12:05:14;;;;;;;1.20;1.07;;;4.20;99.90;4.00;95145.00;;;;5049573;28;20207;-83
2021/11/29 12:08:31;;;;;;;1.20;1.00;;;4.20;99.90;5.10;95158.00;;;;5043567;28;20228;-83
2021/11/29 12:11:42;;;;;;;1.20;1.00;;;4.40;99.90;5.30;95159.00;;;;5052342;28;20436;-83
2021/11/29 12:14:35;;;;;;;1.07;0.90;;;4.70;99.90;4.80;95149.00;;;;5048224;28;20209;-83
2021/11/29 12:17:25;;;;;;;0.60;0.60;;;4.90;99.90;5.20;95154.00;;;;5049941;28;20205;-82
2021/11/29 12:20:19;;;;;;;1.87;0.83;;;5.00;99.90;5.30;95154.00;;;;5049942;28;20201;-82
2021/11/29 12:23:45;;;;;;;1.23;1.00;;;5.10;99.90;5.40;95155.00;;;;5050562;28;20200;-84
2021/11/29 12:26:59;;;;;;;2.67;1.10;;;5.20;99.90;5.50;95170.00;;;;5049210;28;20213;-83
2021/11/29 12:29:54;;;;;;;1.00;1.00;;;5.30;99.90;5.60;95179.00;;;;5048247;28;20587;-82
2021/11/29 12:32:53;;;;;;;1.53;1.37;;;5.40;99.90;5.30;95177.00;;;;5047227;28;20205;-83
2021/11/29 12:35:46;;;;;;;1.93;1.47;;;5.40;99.90;4.90;95183.00;;;;5051069;28;20223;-83
2021/11/29 12:38:48;;;;;;;0.90;0.90;;;5.30;99.90;3.70;95186.00;;;;5049968;28;20220;-83
2021/11/29 12:41:39;;;;;;;0.77;0.60;;;4.80;99.90;4.20;95196.00;;;;5049740;28;20677;-82
2021/11/29 12:44:46;;;;;;;0.70;0.70;;;4.50;99.90;3.80;95190.00;;;;5047972;28;20247;-83
2021/11/29 12:47:43;;;;;;;1.87;1.30;;;4.40;99.90;3.80;95197.00;;;;5048467;28;20227;-81
2021/11/29 12:50:51;;;;;;;1.47;1.00;;;5.00;99.90;4.10;95197.00;;;;5050606;28;20231;-85
2021/11/29 12:53:41;;;;;;;1.10;1.00;;;4.10;99.90;4.20;95201.00;;;;5065200;28;20215;-84
2021/11/29 12:56:30;;;;;;;1.37;1.27;;;4.10;99.90;4.20;95213.00;;;;5049612;28;20200;-83